Time;durP1;ratioP1;P1;durP2;ratioP2;P2;SDS_P1;SDS_P2;PMS_P1;PMS_P2;Temp;Humidity;BMP_temperature;BMP_pressure;BME280_temperature;BME280_humidity;BME280_pressure;Samples;Min_cycle;Max_cycle;Signal;HPM_P1;HPM_P2
2023/03/05 00:00:01;;;;;;;33.70;19.30;;;2.80;81.70;;;2.59;74.62;98122.13;5077490;28;20444;-70
2023/03/05 00:02:28;;;;;;;32.03;18.47;;;2.80;82.10;;;2.40;75.27;98110.75;5086219;28;20442;-69
2023/03/05 00:04:56;;;;;;;33.30;17.73;;;2.80;82.20;;;2.43;75.21;98112.22;5110751;28;20444;-73
2023/03/05 00:07:23;;;;;;;35.57;19.90;;;2.80;82.40;;;2.42;75.01;98116.75;5090421;28;20504;-75
2023/03/05 00:09:50;;;;;;;31.80;18.63;;;2.80;82.50;;;2.39;75.45;98117.06;5088094;28;20464;-75
2023/03/05 00:12:17;;;;;;;38.37;19.80;;;2.80;82.40;;;2.31;75.62;98109.03;5078739;28;20549;-75
2023/03/05 00:14:46;;;;;;;32.30;19.53;;;2.80;82.60;;;2.25;75.33;98105.16;5078483;28;20452;-76
2023/03/05 00:17:16;;;;;;;37.00;19.80;;;2.70;82.80;;;2.00;75.74;98057.09;5076701;28;20455;-75
2023/03/05 00:19:43;;;;;;;34.10;19.33;;;2.70;83.10;;;2.45;75.59;98121.75;5106635;27;20460;-77
2023/03/05 00:22:10;;;;;;;32.83;19.67;;;2.80;83.50;;;2.50;74.47;98115.94;5075078;28;20444;-76
2023/03/05 00:24:38;;;;;;;31.10;18.33;;;2.80;83.20;;;2.59;74.77;98112.31;5076592;28;20590;-73
2023/03/05 00:27:05;;;;;;;31.90;18.90;;;2.80;83.40;;;2.54;74.72;98110.13;5091476;27;20461;-75
2023/03/05 00:29:32;;;;;;;35.30;19.13;;;2.90;82.70;;;2.43;74.85;98102.41;5086156;28;20489;-74
2023/03/05 00:32:01;;;;;;;33.00;18.40;;;2.90;82.90;;;2.43;75.28;98112.22;5095532;28;20452;-74
2023/03/05 00:34:28;;;;;;;42.07;20.43;;;2.80;82.70;;;2.47;74.64;98108.28;5088184;28;20449;-72
2023/03/05 00:36:55;;;;;;;33.47;19.63;;;2.80;83.00;;;2.44;75.61;98106.75;5104429;27;20445;-72
2023/03/05 00:39:23;;;;;;;33.30;19.53;;;2.80;83.00;;;2.43;75.86;98101.56;5083746;28;20454;-72
2023/03/05 00:41:50;;;;;;;35.70;21.00;;;2.80;83.50;;;2.41;75.67;98099.06;5075941;28;20495;-76
2023/03/05 00:44:17;;;;;;;35.50;20.00;;;2.80;83.40;;;2.52;75.24;98096.13;5092230;28;20456;-77
2023/03/05 00:46:45;;;;;;;36.63;20.47;;;2.80;83.70;;;2.57;75.53;98108.94;5092702;27;20459;-75
2023/03/05 00:49:13;;;;;;;39.50;19.97;;;2.80;84.10;;;2.48;76.06;98099.28;5095255;28;20826;-74
2023/03/05 00:51:41;;;;;;;35.57;19.80;;;2.90;84.00;;;2.20;76.60;98097.66;5085740;28;20827;-73
2023/03/05 00:54:08;;;;;;;36.30;22.50;;;2.70;84.20;;;2.24;77.11;98093.69;5102358;28;20446;-76
2023/03/05 00:56:36;;;;;;;43.20;22.07;;;2.70;84.50;;;2.34;76.67;98106.03;5104569;27;20455;-76
2023/03/05 00:59:04;;;;;;;39.60;21.23;;;2.70;85.50;;;2.35;76.45;98110.38;5095433;28;20458;-74
2023/03/05 01:01:31;;;;;;;41.00;20.53;;;2.80;85.10;;;2.23;77.19;98096.50;5120658;27;20434;-75
2023/03/05 01:03:59;;;;;;;41.87;21.80;;;2.70;85.30;;;2.22;77.49;98093.00;5099896;28;20543;-74
2023/03/05 01:06:31;;;;;;;37.30;21.60;;;2.70;85.70;;;2.22;77.29;98087.69;5098808;28;20482;-73
2023/03/05 01:08:58;;;;;;;37.57;21.47;;;2.70;86.00;;;2.34;77.05;98095.38;5098585;28;20449;-73
2023/03/05 01:11:25;;;;;;;37.40;20.83;;;2.70;86.20;;;2.23;77.06;98084.03;5095405;28;20563;-75
2023/03/05 01:13:53;;;;;;;40.53;22.30;;;2.70;85.90;;;2.12;78.02;98089.63;5107450;28;20630;-76
2023/03/05 01:16:20;;;;;;;38.27;21.00;;;2.60;86.80;;;2.26;77.52;98074.84;5105880;28;20452;-74
2023/03/05 01:18:48;;;;;;;41.10;21.87;;;2.70;87.20;;;2.29;77.40;98087.03;5105304;27;20450;-76
2023/03/05 01:21:15;;;;;;;41.70;22.87;;;2.70;86.50;;;2.09;77.92;98068.63;5111729;28;20521;-74
2023/03/05 01:23:44;;;;;;;38.37;21.40;;;2.60;87.40;;;2.16;77.66;98074.97;5108687;28;20738;-73
2023/03/05 01:26:11;;;;;;;38.83;21.27;;;2.70;86.80;;;2.13;78.16;98064.63;5095398;28;20447;-73
2023/03/05 01:28:40;;;;;;;38.43;22.60;;;2.60;87.10;;;2.16;78.17;98074.16;5093066;28;21017;-72
2023/03/05 01:31:09;;;;;;;37.30;21.40;;;2.60;87.30;;;2.14;78.10;98068.97;5136098;27;20742;-74
2023/03/05 01:33:36;;;;;;;46.33;21.97;;;2.60;87.40;;;2.09;78.59;98073.97;5093757;28;20444;-74
2023/03/05 01:36:07;;;;;;;37.33;22.07;;;2.60;88.10;;;2.20;77.81;98071.00;5110077;28;20438;-73
2023/03/05 01:38:34;;;;;;;41.63;22.70;;;2.60;88.00;;;2.29;77.69;98063.03;5107099;27;20463;-75
2023/03/05 01:41:03;;;;;;;33.80;21.00;;;2.70;88.20;;;2.38;77.67;98062.06;5103991;28;20442;-75
2023/03/05 01:43:31;;;;;;;42.27;21.73;;;2.70;87.70;;;2.14;78.01;98070.81;5099460;27;20446;-74
2023/03/05 01:46:33;;;;;;;39.47;22.07;;;2.60;87.10;;;2.02;78.72;98056.91;5092125;28;20445;-73
2023/03/05 01:49:16;;;;;;;37.47;21.67;;;2.50;88.30;;;2.02;78.48;98052.44;5106945;28;20777;-76
2023/03/05 01:51:55;;;;;;;43.13;22.63;;;2.50;88.60;;;1.88;79.00;98043.19;5106999;27;20448;-75
2023/03/05 01:54:27;;;;;;;42.53;26.47;;;2.50;88.80;;;1.92;79.39;98063.22;5090266;28;20464;-74
2023/03/05 01:57:00;;;;;;;43.13;21.97;;;2.50;89.40;;;2.06;79.09;98052.97;5118315;27;20448;-73
2023/03/05 01:59:28;;;;;;;37.83;21.60;;;2.50;89.10;;;2.09;79.49;98052.63;5110161;27;20516;-75
2023/03/05 02:01:58;;;;;;;42.80;22.07;;;2.60;88.50;;;2.00;79.21;98043.78;5085495;28;20453;-74
2023/03/05 02:04:35;;;;;;;44.47;22.27;;;2.50;89.50;;;1.92;79.39;98047.22;5098805;28;20451;-72
2023/03/05 02:07:03;;;;;;;42.73;21.10;;;2.50;89.20;;;1.89;79.36;98042.19;5105367;27;20579;-71
2023/03/05 02:09:30;;;;;;;41.23;22.10;;;2.50;89.30;;;2.12;78.84;98042.50;5098957;28;20477;-72
2023/03/05 02:12:00;;;;;;;37.97;21.37;;;2.50;89.60;;;1.97;79.20;98039.59;5087661;28;20455;-73
2023/03/05 02:14:27;;;;;;;37.70;20.53;;;2.50;89.00;;;1.92;78.84;98017.06;5123184;27;20470;-75
2023/03/05 02:16:57;;;;;;;37.27;21.33;;;2.50;89.20;;;1.94;79.52;98042.56;5111995;27;20447;-75
2023/03/05 02:19:24;;;;;;;33.63;20.13;;;2.50;89.20;;;1.80;79.32;98006.69;5099627;28;20463;-73
2023/03/05 02:21:53;;;;;;;34.90;20.57;;;2.50;89.30;;;1.91;79.73;98040.22;5088239;28;20860;-75
2023/03/05 02:24:37;;;;;;;36.60;19.50;;;2.50;89.40;;;2.04;79.29;98029.13;5085443;28;20524;-76
2023/03/05 02:27:06;;;;;;;33.00;18.87;;;2.50;89.20;;;2.03;78.85;98026.59;5085988;28;20453;-78
2023/03/05 02:29:35;;;;;;;35.00;20.67;;;2.50;89.30;;;1.89;79.39;98026.22;5104432;28;20958;-75
2023/03/05 02:32:02;;;;;;;36.40;19.23;;;2.50;89.00;;;1.90;79.59;98021.72;5094790;28;20483;-74
2023/03/05 02:34:30;;;;;;;34.60;21.40;;;2.40;89.40;;;2.02;79.16;98027.59;5093146;28;20516;-72
2023/03/05 02:36:58;;;;;;;32.70;19.07;;;2.50;89.60;;;2.08;78.63;98018.97;5090659;28;20462;-75
2023/03/05 02:39:26;;;;;;;40.03;21.23;;;2.50;89.00;;;1.86;79.19;98015.88;5101718;28;20519;-72
2023/03/05 02:41:53;;;;;;;31.60;18.50;;;2.40;88.40;;;1.87;79.28;98012.22;5111288;28;20436;-70
2023/03/05 02:44:20;;;;;;;34.17;19.17;;;2.40;88.50;;;1.84;78.90;98007.22;5124792;28;20451;-70
2023/03/05 02:46:47;;;;;;;33.97;19.23;;;2.40;88.30;;;2.03;78.54;98010.59;5100856;28;20448;-73
2023/03/05 02:49:15;;;;;;;31.63;17.10;;;2.50;88.90;;;2.05;78.51;98013.97;5118476;27;20443;-73
2023/03/05 02:51:42;;;;;;;30.30;19.67;;;2.50;88.40;;;1.92;78.73;98007.25;5080942;28;20453;-71
2023/03/05 02:54:11;;;;;;;30.53;17.50;;;2.40;87.40;;;1.89;78.40;98007.56;5089275;28;20467;-70
2023/03/05 02:56:38;;;;;;;35.40;17.67;;;2.40;87.30;;;1.92;78.05;97998.41;5086514;28;21018;-73
2023/03/05 02:59:05;;;;;;;28.60;16.07;;;2.50;86.60;;;1.86;77.87;97989.22;5090122;28;20464;-71
2023/03/05 03:01:32;;;;;;;24.57;15.97;;;2.40;85.80;;;2.02;77.17;97977.81;5079898;28;20460;-73
2023/03/05 03:04:00;;;;;;;25.10;15.90;;;2.40;86.00;;;1.92;76.60;97971.78;5081222;28;20463;-73
2023/03/05 03:06:27;;;;;;;30.13;15.37;;;2.50;84.90;;;2.03;76.14;97989.28;5109845;27;20511;-74
2023/03/05 03:08:55;;;;;;;25.30;15.83;;;2.50;84.20;;;2.02;76.40;97980.47;5077780;28;20448;-71
2023/03/05 03:11:23;;;;;;;30.53;15.60;;;2.40;84.00;;;1.73;76.13;97941.72;5101630;28;20487;-74
2023/03/05 03:13:51;;;;;;;29.20;15.80;;;2.50;84.80;;;1.87;77.04;97990.91;5090646;28;20476;-73
2023/03/05 03:16:18;;;;;;;22.93;15.30;;;2.40;84.50;;;1.98;76.46;97985.28;5078741;28;20928;-70
2023/03/05 03:18:47;;;;;;;26.53;14.70;;;2.40;84.50;;;1.87;76.19;97964.25;5085063;28;20448;-74
2023/03/05 03:21:20;;;;;;;28.07;15.63;;;2.40;84.30;;;2.05;76.05;97976.66;5082085;28;20476;-72
2023/03/05 03:23:47;;;;;;;22.27;14.87;;;2.50;83.90;;;2.08;75.99;97965.66;5098062;28;20449;-73
2023/03/05 03:26:15;;;;;;;27.03;15.50;;;2.50;83.90;;;2.08;75.78;97971.00;5089725;28;20467;-73
2023/03/05 03:28:44;;;;;;;21.97;14.33;;;2.40;84.00;;;2.06;75.91;97965.81;5094041;28;21005;-73
2023/03/05 03:31:12;;;;;;;29.60;16.20;;;2.40;83.80;;;2.07;75.51;97972.00;5098980;28;20562;-74
2023/03/05 03:33:39;;;;;;;29.73;14.80;;;2.50;83.10;;;1.85;75.81;97966.25;5067928;28;20468;-71
2023/03/05 03:36:07;;;;;;;24.80;13.90;;;2.40;83.00;;;2.01;75.30;97964.63;5089960;28;20463;-74
2023/03/05 03:38:35;;;;;;;21.27;13.27;;;2.50;82.90;;;2.17;74.99;97969.19;5087110;28;21010;-74
2023/03/05 03:41:02;;;;;;;27.83;13.80;;;2.50;82.80;;;2.05;75.02;97966.00;5085643;28;20456;-72
2023/03/05 03:43:29;;;;;;;21.47;13.20;;;2.50;82.60;;;2.00;75.68;97968.28;5095701;27;20467;-73
2023/03/05 03:45:58;;;;;;;26.07;12.93;;;2.50;82.40;;;1.97;75.41;97964.13;5083661;28;20456;-76
2023/03/05 03:48:26;;;;;;;22.77;13.63;;;2.40;82.60;;;1.94;75.16;97959.97;5092976;27;20464;-73
2023/03/05 03:50:53;;;;;;;27.50;14.40;;;2.40;83.10;;;2.01;75.35;97962.81;5085289;28;20492;-72
2023/03/05 03:53:20;;;;;;;25.17;13.47;;;2.40;83.10;;;2.05;75.25;97966.00;5101708;28;20472;-75
2023/03/05 03:55:47;;;;;;;25.73;13.83;;;2.50;82.90;;;1.89;75.11;97940.94;5105333;28;21786;-74
2023/03/05 03:58:15;;;;;;;22.00;13.80;;;2.50;82.70;;;2.06;74.99;97962.34;5097845;28;20498;-73
2023/03/05 04:00:42;;;;;;;23.37;13.90;;;2.50;82.60;;;1.88;75.42;97944.59;5099998;28;20496;-75
2023/03/05 04:03:11;;;;;;;21.57;13.80;;;2.40;82.60;;;1.90;75.35;97955.97;5089926;28;20457;-76
2023/03/05 04:05:38;;;;;;;26.10;13.23;;;2.40;82.40;;;2.22;74.00;97954.38;5103153;27;20449;-75
2023/03/05 04:08:10;;;;;;;24.30;13.80;;;2.50;82.20;;;2.09;74.66;97951.34;5073523;28;20515;-74
2023/03/05 04:10:38;;;;;;;25.20;13.87;;;2.50;82.20;;;2.14;74.41;97954.34;5075722;28;20560;-73
2023/03/05 04:13:05;;;;;;;25.87;12.60;;;2.50;81.60;;;2.20;73.75;97945.72;5070612;28;20952;-73
2023/03/05 04:15:33;;;;;;;23.60;12.60;;;2.60;81.20;;;2.11;73.98;97949.34;5108040;27;20588;-69
2023/03/05 04:18:01;;;;;;;24.80;14.13;;;2.50;81.10;;;2.10;74.49;97945.00;5074956;28;20464;-73
2023/03/05 04:20:29;;;;;;;22.77;14.80;;;2.50;81.40;;;2.03;74.71;97938.66;5076417;28;20502;-74
2023/03/05 04:22:57;;;;;;;24.37;14.13;;;2.40;81.70;;;2.19;74.27;97945.88;5068931;28;20465;-71
2023/03/05 04:25:24;;;;;;;25.97;14.37;;;2.50;82.50;;;2.23;73.84;97932.06;5073867;28;20459;-73
2023/03/05 04:27:52;;;;;;;25.37;13.90;;;2.50;82.20;;;2.33;74.13;97939.03;5072437;28;20461;-74
2023/03/05 04:30:19;;;;;;;25.00;14.73;;;2.60;82.20;;;2.32;74.00;97932.88;5068624;28;21570;-73
2023/03/05 04:32:46;;;;;;;26.20;14.57;;;2.60;81.60;;;2.29;73.67;97929.72;5073916;28;20464;-74
2023/03/05 04:35:14;;;;;;;22.63;14.07;;;2.60;81.40;;;2.15;74.39;97921.34;5073929;28;20464;-73
2023/03/05 04:37:42;;;;;;;28.47;15.40;;;2.60;81.70;;;2.14;74.46;97933.03;5070917;28;20479;-73
2023/03/05 04:40:11;;;;;;;23.40;15.17;;;2.60;81.80;;;2.32;73.94;97937.38;5073465;28;20457;-70
2023/03/05 04:42:38;;;;;;;26.40;15.97;;;2.70;81.80;;;2.28;74.52;97925.38;5076022;28;20460;-72
2023/03/05 04:45:07;;;;;;;30.23;14.87;;;2.60;82.00;;;2.28;74.12;97912.06;5106473;27;21066;-74
2023/03/05 04:47:35;;;;;;;27.73;17.90;;;2.70;82.30;;;2.20;75.00;97931.53;5102973;27;20459;-74
2023/03/05 04:50:03;;;;;;;28.27;14.83;;;2.70;82.50;;;2.34;74.91;97930.03;5093457;28;21709;-74
2023/03/05 04:52:31;;;;;;;29.67;16.50;;;2.70;83.10;;;1.48;75.67;97807.66;5103384;27;20457;-75
2023/03/05 04:54:59;;;;;;;29.77;17.23;;;2.60;83.70;;;2.25;76.13;97929.19;5080705;28;20530;-72
2023/03/05 04:57:28;;;;;;;35.13;18.10;;;2.50;83.90;;;1.87;75.87;97862.19;5121306;27;20444;-70
2023/03/05 04:59:55;;;;;;;30.63;16.77;;;2.50;84.60;;;2.08;76.52;97921.19;5132578;27;20528;-70
2023/03/05 05:02:23;;;;;;;28.50;18.17;;;2.50;84.80;;;2.28;76.09;97917.38;5117833;28;20447;-70
2023/03/05 05:04:53;;;;;;;30.70;18.40;;;2.60;85.00;;;2.17;77.21;97919.34;5098123;28;20477;-74
2023/03/05 05:07:20;;;;;;;32.50;18.53;;;2.60;85.80;;;2.05;77.03;97891.38;5095223;28;20447;-74
2023/03/05 05:09:48;;;;;;;30.23;18.90;;;2.50;86.40;;;2.30;76.71;97910.91;5091183;28;20457;-74
2023/03/05 05:12:17;;;;;;;33.30;18.97;;;2.60;86.60;;;2.25;76.84;97916.72;5090001;28;20475;-75
2023/03/05 05:14:44;;;;;;;31.97;19.30;;;2.60;86.10;;;2.25;77.35;97907.88;5079320;28;20452;-75
2023/03/05 05:17:11;;;;;;;39.13;18.80;;;2.60;86.60;;;2.39;76.88;97903.72;5083074;28;20458;-73
2023/03/05 05:19:38;;;;;;;33.97;19.73;;;2.70;86.80;;;2.32;76.85;97902.72;5080146;28;20441;-75
2023/03/05 05:22:06;;;;;;;38.53;21.20;;;2.60;87.30;;;2.17;77.69;97907.88;5110979;27;20495;-74
2023/03/05 05:24:33;;;;;;;35.17;20.07;;;2.60;86.90;;;2.36;76.98;97906.75;5098362;28;20451;-74
2023/03/05 05:27:00;;;;;;;34.30;18.70;;;2.70;87.30;;;2.23;77.38;97910.72;5089315;28;20455;-73
2023/03/05 05:29:28;;;;;;;38.47;21.50;;;2.60;86.60;;;2.25;77.49;97903.38;5092634;28;20463;-72
2023/03/05 05:31:56;;;;;;;34.70;20.20;;;2.60;87.70;;;2.22;77.84;97909.06;5087598;28;20524;-73
2023/03/05 05:34:24;;;;;;;37.17;20.20;;;2.60;87.30;;;2.23;77.82;97918.72;5103279;28;20543;-72
2023/03/05 05:36:51;;;;;;;34.80;19.93;;;2.60;87.60;;;2.31;77.59;97917.91;5088863;28;20534;-73
2023/03/05 05:39:20;;;;;;;36.67;20.10;;;2.60;87.40;;;2.17;77.31;97879.38;5093217;28;20436;-73
2023/03/05 05:41:50;;;;;;;40.40;18.53;;;2.70;87.60;;;2.09;77.94;97911.38;5088299;28;20647;-71
2023/03/05 05:44:18;;;;;;;40.43;20.67;;;2.60;87.10;;;2.15;78.23;97912.53;5077388;28;20483;-74
2023/03/05 05:46:46;;;;;;;30.93;18.60;;;2.50;88.20;;;2.04;78.03;97914.50;5100728;28;20512;-75
2023/03/05 05:49:14;;;;;;;31.37;19.47;;;2.50;88.40;;;2.10;77.64;97910.38;5091257;28;20511;-74
2023/03/05 05:51:41;;;;;;;40.03;21.20;;;2.50;88.10;;;2.16;78.56;97907.03;5112993;27;20885;-75
2023/03/05 05:54:08;;;;;;;37.73;21.30;;;2.50;89.10;;;2.20;77.99;97911.06;5100709;28;20444;-73
2023/03/05 05:56:36;;;;;;;37.83;18.50;;;2.50;88.60;;;2.20;78.17;97904.88;5080439;28;20452;-75
2023/03/05 05:59:03;;;;;;;32.27;19.63;;;2.50;88.40;;;2.23;78.12;97913.38;5103389;28;20487;-74
2023/03/05 06:01:32;;;;;;;39.10;21.20;;;2.50;89.10;;;2.29;78.05;97908.38;5112651;27;20486;-73
2023/03/05 06:04:03;;;;;;;38.67;19.53;;;2.50;89.20;;;2.21;78.25;97912.72;5100648;27;20452;-74
2023/03/05 06:06:32;;;;;;;36.97;21.00;;;2.50;89.10;;;2.31;77.76;97912.56;5094216;28;20451;-74
2023/03/05 06:08:59;;;;;;;36.30;21.00;;;2.60;88.30;;;2.26;78.09;97906.88;5083909;28;20955;-72
2023/03/05 06:11:26;;;;;;;38.43;21.00;;;2.60;88.60;;;2.30;77.77;97905.56;5086548;28;20959;-75
2023/03/05 06:13:54;;;;;;;41.40;21.97;;;2.60;89.00;;;2.26;78.32;97910.38;5079188;28;20935;-72
2023/03/05 06:16:24;;;;;;;37.80;20.67;;;2.60;89.30;;;2.38;78.28;97912.75;5070009;28;20468;-73
2023/03/05 06:18:52;;;;;;;43.80;23.90;;;2.70;89.50;;;2.33;78.25;97920.38;5099154;27;20461;-73
2023/03/05 06:21:23;;;;;;;38.80;22.20;;;2.70;88.60;;;2.32;78.36;97908.91;5091220;27;20479;-71
2023/03/05 06:23:50;;;;;;;36.50;21.57;;;2.70;89.50;;;2.27;78.68;97911.19;5074428;28;20468;-72
2023/03/05 06:26:20;;;;;;;43.03;21.37;;;2.60;89.80;;;2.26;78.86;97914.88;5074412;28;21076;-74
2023/03/05 06:28:48;;;;;;;41.17;20.27;;;2.70;89.30;;;2.41;78.01;97913.22;5104272;27;20460;-71
2023/03/05 06:31:20;;;;;;;36.73;21.50;;;2.80;89.10;;;2.68;77.10;97913.91;5086820;27;20868;-69
2023/03/05 06:33:48;;;;;;;43.50;21.57;;;2.90;88.10;;;2.78;76.67;97913.72;5081350;28;20544;-70
2023/03/05 06:36:19;;;;;;;36.90;20.60;;;3.00;87.10;;;2.71;76.94;97917.22;5071130;28;20456;-72
2023/03/05 06:38:48;;;;;;;37.67;21.20;;;3.00;86.20;;;2.72;76.91;97916.22;5089095;28;20451;-69
2023/03/05 06:41:17;;;;;;;39.13;20.23;;;3.10;86.10;;;2.78;76.54;97918.25;5075447;28;20482;-71
2023/03/05 06:43:47;;;;;;;39.50;21.90;;;3.10;86.00;;;2.86;76.07;97920.06;5074867;28;20444;-71
2023/03/05 06:46:17;;;;;;;44.17;19.43;;;3.10;86.00;;;2.91;75.81;97918.56;5073665;28;20526;-71
2023/03/05 06:48:45;;;;;;;38.13;20.90;;;3.20;85.10;;;2.68;76.57;97907.75;5105650;27;20455;-75
2023/03/05 06:51:18;;;;;;;41.23;21.30;;;3.20;84.70;;;2.92;76.38;97919.38;5101182;27;20523;-77
2023/03/05 06:53:47;;;;;;;42.33;19.93;;;3.20;85.20;;;2.72;75.99;97914.41;5075703;28;20462;-79
2023/03/05 06:56:15;;;;;;;39.63;21.07;;;3.20;84.70;;;2.60;76.94;97915.72;5077183;28;20518;-69
2023/03/05 06:58:43;;;;;;;42.90;20.97;;;3.10;85.20;;;2.62;77.41;97913.72;5099526;28;20458;-71
2023/03/05 07:01:10;;;;;;;36.07;20.70;;;3.00;86.20;;;2.53;77.01;97910.22;5088685;28;20451;-77
2023/03/05 07:03:38;;;;;;;38.30;20.87;;;3.00;86.40;;;2.46;77.51;97910.06;5101657;27;20461;-73
2023/03/05 07:06:08;;;;;;;35.57;20.33;;;2.90;86.50;;;2.59;76.67;97911.41;5085357;28;21242;-71
2023/03/05 07:08:36;;;;;;;39.27;20.43;;;3.00;86.40;;;2.61;77.26;97917.41;5076700;28;20456;-71
2023/03/05 07:11:10;;;;;;;36.90;20.73;;;3.00;86.80;;;2.72;77.05;97914.41;5089389;28;20491;-71
2023/03/05 07:13:38;;;;;;;31.10;20.27;;;3.00;86.90;;;2.37;76.83;97847.06;5101258;28;20515;-71
2023/03/05 07:16:07;;;;;;;41.07;22.57;;;3.10;87.10;;;2.86;76.62;97915.53;5096142;28;21219;-72
2023/03/05 07:18:35;;;;;;;39.30;20.67;;;3.20;86.10;;;2.75;76.45;97908.72;5090134;28;20443;-72
2023/03/05 07:21:03;;;;;;;42.17;20.20;;;3.10;85.70;;;2.82;76.21;97906.22;5085572;28;20510;-71
2023/03/05 07:23:30;;;;;;;36.90;19.03;;;3.20;86.00;;;2.74;77.00;97904.38;5090304;28;20539;-70
2023/03/05 07:26:00;;;;;;;43.13;20.97;;;3.20;85.80;;;2.79;76.59;97899.38;5086798;28;20858;-71
2023/03/05 07:28:29;;;;;;;39.00;19.70;;;3.20;85.60;;;2.95;76.23;97905.69;5086362;28;20459;-69
2023/03/05 07:30:58;;;;;;;33.67;19.70;;;3.30;85.10;;;3.08;76.04;97907.84;5086134;28;20456;-69
2023/03/05 07:33:26;;;;;;;37.77;19.70;;;3.40;85.30;;;3.19;75.98;97893.31;5083451;28;20834;-68
2023/03/05 07:35:53;;;;;;;45.10;21.43;;;3.50;84.60;;;2.95;75.46;97903.88;5094211;28;20481;-68
2023/03/05 07:38:21;;;;;;;34.67;19.03;;;3.40;83.50;;;2.92;76.23;97903.38;5081714;28;20455;-68
2023/03/05 07:40:49;;;;;;;40.90;20.80;;;3.40;83.40;;;2.92;75.84;97895.34;5080564;28;20456;-68
2023/03/05 07:43:16;;;;;;;33.10;18.77;;;3.30;83.80;;;2.95;75.79;97897.69;5124825;27;20457;-71
2023/03/05 07:45:46;;;;;;;33.97;18.17;;;3.30;83.60;;;2.90;75.24;97894.69;5092054;28;20506;-69
2023/03/05 07:48:16;;;;;;;35.10;17.93;;;3.40;83.60;;;2.96;74.85;97904.72;5076036;28;20463;-66
2023/03/05 07:50:43;;;;;;;33.30;18.63;;;3.40;83.50;;;3.09;75.13;97893.50;5075337;28;20453;-69
2023/03/05 07:53:11;;;;;;;35.90;18.93;;;3.50;82.80;;;3.20;74.44;97894.97;5070021;28;20483;-69
2023/03/05 07:55:43;;;;;;;37.63;19.50;;;3.50;82.90;;;3.39;74.56;97894.56;5069326;28;20453;-70
2023/03/05 07:58:11;;;;;;;31.90;16.97;;;3.70;82.90;;;3.73;72.42;97897.13;5068738;28;20444;-70
2023/03/05 08:00:39;;;;;;;31.57;15.37;;;3.90;81.80;;;3.41;71.89;97897.06;5067762;28;20460;-68
2023/03/05 08:03:08;;;;;;;28.60;14.90;;;3.90;80.00;;;3.38;72.29;97892.91;5075345;28;21020;-69
2023/03/05 08:05:38;;;;;;;29.73;16.40;;;3.90;80.00;;;3.55;72.33;97887.50;5087841;28;20459;-70
2023/03/05 08:08:07;;;;;;;29.60;15.50;;;3.90;79.70;;;3.74;71.08;97893.44;5085724;28;20479;-70
2023/03/05 08:10:34;;;;;;;24.87;15.33;;;4.10;79.50;;;3.63;70.78;97887.47;5101549;27;20478;-69
2023/03/05 08:13:01;;;;;;;25.53;15.57;;;4.10;79.10;;;3.54;71.27;97888.50;5064669;28;20480;-69
2023/03/05 08:15:30;;;;;;;23.50;13.80;;;4.10;78.80;;;3.61;71.27;97881.47;5071620;28;20444;-70
2023/03/05 08:17:57;;;;;;;28.40;14.33;;;4.00;78.60;;;3.61;70.27;97884.13;5087004;28;20453;-69
2023/03/05 08:20:26;;;;;;;25.00;13.77;;;4.10;78.30;;;3.99;69.96;97882.59;5067564;28;20471;-69
2023/03/05 08:22:53;;;;;;;23.93;14.20;;;4.20;78.40;;;3.94;68.54;97891.97;5070215;28;20639;-68
2023/03/05 08:25:20;;;;;;;20.90;12.83;;;4.40;77.40;;;3.81;68.70;97892.56;5080183;28;20561;-74
2023/03/05 08:27:48;;;;;;;23.00;12.80;;;4.30;77.10;;;3.96;68.43;97887.28;5083942;27;20483;-69
2023/03/05 08:30:20;;;;;;;16.73;11.03;;;4.30;76.80;;;3.88;66.93;97889.19;5072581;28;20556;-68
2023/03/05 08:32:50;;;;;;;16.07;10.27;;;4.30;75.90;;;3.75;67.89;97871.88;5084256;28;20496;-69
2023/03/05 08:35:17;;;;;;;17.17;11.20;;;4.20;76.10;;;3.88;68.16;97883.84;5071428;28;20553;-69
2023/03/05 08:37:46;;;;;;;20.40;11.90;;;4.30;76.30;;;3.82;68.09;97880.03;5093334;27;20456;-70
2023/03/05 08:40:14;;;;;;;20.40;11.03;;;4.30;76.00;;;3.64;68.31;97886.47;5078586;28;20483;-76
2023/03/05 08:42:41;;;;;;;20.17;11.40;;;4.20;76.20;;;3.72;68.70;97876.75;5072963;28;20463;-72
2023/03/05 08:45:10;;;;;;;19.60;11.70;;;4.20;76.60;;;3.71;69.26;97875.06;5095847;28;20459;-68
2023/03/05 08:47:37;;;;;;;16.03;10.33;;;4.10;76.80;;;3.78;68.09;97884.06;5090136;28;21050;-72
2023/03/05 08:50:05;;;;;;;20.50;10.33;;;4.20;76.30;;;3.82;67.93;97885.38;5077719;28;20524;-74
2023/03/05 08:52:33;;;;;;;20.57;9.53;;;4.20;76.10;;;3.74;67.96;97882.75;5091033;28;20467;-73
2023/03/05 08:55:02;;;;;;;18.30;9.13;;;4.10;75.60;;;3.73;67.81;97883.75;5087216;28;20450;-74
2023/03/05 08:57:29;;;;;;;17.27;9.30;;;4.10;76.10;;;3.74;66.85;97880.91;5081834;28;20483;-76
2023/03/05 08:59:56;;;;;;;12.70;8.37;;;4.10;75.10;;;3.89;66.10;97878.31;5123655;27;20448;-74
2023/03/05 09:02:24;;;;;;;16.00;8.57;;;4.20;75.10;;;3.94;65.14;97875.94;5105824;27;20456;-77
2023/03/05 09:04:51;;;;;;;10.80;7.67;;;4.30;73.80;;;4.00;64.72;97814.75;5116535;27;20774;-73
2023/03/05 09:07:18;;;;;;;11.80;6.77;;;4.60;73.90;;;4.07;62.50;97869.19;5086188;28;20464;-73
2023/03/05 09:09:45;;;;;;;9.80;5.80;;;4.60;71.50;;;3.97;62.95;97875.59;5095516;28;21141;-73
2023/03/05 09:12:14;;;;;;;12.33;5.93;;;4.40;71.40;;;3.73;62.81;97873.88;5108592;28;20953;-75
2023/03/05 09:14:42;;;;;;;11.27;6.43;;;4.20;71.00;;;3.28;62.46;97806.84;5092683;28;20447;-74
2023/03/05 09:17:09;;;;;;;12.67;5.50;;;4.20;70.70;;;3.83;62.02;97862.97;5110213;28;20457;-71
2023/03/05 09:19:37;;;;;;;11.60;5.97;;;4.20;70.90;;;3.80;62.83;97855.31;5081776;28;21073;-75
2023/03/05 09:22:05;;;;;;;10.67;6.53;;;4.30;71.10;;;3.94;63.03;97843.03;5072657;28;20453;-75
2023/03/05 09:24:32;;;;;;;14.07;6.97;;;4.40;71.40;;;3.54;63.37;97795.00;5094678;28;20463;-71
2023/03/05 09:27:00;;;;;;;8.73;6.00;;;4.30;71.30;;;3.90;63.49;97858.59;5083261;28;20447;-75
2023/03/05 09:29:30;;;;;;;9.70;7.03;;;4.40;71.60;;;3.61;63.84;97849.41;5080787;28;20453;-73
2023/03/05 09:31:57;;;;;;;9.97;6.00;;;4.20;71.60;;;3.57;64.74;97861.47;5080012;28;20638;-74
2023/03/05 09:34:24;;;;;;;13.07;6.60;;;4.10;72.30;;;3.45;63.95;97857.50;5094153;28;20461;-74
2023/03/05 09:36:52;;;;;;;11.00;6.43;;;4.00;71.70;;;3.45;64.34;97836.94;5107926;28;20524;-71
2023/03/05 09:39:19;;;;;;;13.63;7.60;;;4.00;72.00;;;3.61;64.61;97848.56;5108156;28;20452;-74
2023/03/05 09:42:23;;;;;;;10.10;6.70;;;4.00;72.10;;;3.69;64.14;97851.19;5096392;28;20478;-72
2023/03/05 09:45:06;;;;;;;10.43;6.50;;;4.00;71.80;;;3.31;64.32;97806.47;5096643;28;20443;-72
2023/03/05 09:47:58;;;;;;;9.57;6.77;;;4.00;72.10;;;3.68;64.32;97862.91;5110136;27;20967;-71
2023/03/05 09:50:37;;;;;;;13.63;7.27;;;4.00;72.30;;;3.26;65.46;97849.72;5076986;28;20467;-72
2023/03/05 09:53:16;;;;;;;10.63;7.10;;;3.90;72.30;;;3.23;65.71;97854.56;5088810;28;20475;-73
2023/03/05 09:55:47;;;;;;;8.80;5.53;;;3.80;72.50;;;3.36;64.95;97846.84;5079535;28;21271;-73
2023/03/05 09:58:18;;;;;;;12.63;6.13;;;3.80;72.50;;;2.97;65.61;97791.59;5093989;28;20539;-75
2023/03/05 10:00:50;;;;;;;14.30;6.70;;;3.80;72.70;;;3.05;65.97;97846.81;5079704;28;20455;-71
2023/03/05 10:03:25;;;;;;;11.87;6.20;;;3.60;72.80;;;3.23;65.75;97855.41;5072647;28;20801;-71
2023/03/05 10:06:13;;;;;;;10.10;5.23;;;3.60;72.90;;;3.19;65.49;97850.59;5080146;28;20467;-74
2023/03/05 10:08:51;;;;;;;12.40;6.60;;;3.60;72.90;;;3.26;65.91;97848.88;5103700;27;20464;-71
2023/03/05 10:11:39;;;;;;;9.27;6.33;;;3.70;73.10;;;3.22;65.66;97836.88;5069016;28;20485;-69
2023/03/05 10:14:13;;;;;;;10.43;6.07;;;3.70;72.90;;;3.43;66.20;97851.50;5076853;28;20565;-73
2023/03/05 10:17:01;;;;;;;7.37;4.50;;;3.80;73.50;;;3.14;65.34;97851.09;5082117;27;20981;-74
2023/03/05 10:19:53;;;;;;;4.50;3.10;;;3.70;72.00;;;3.01;63.93;97848.97;5095759;27;20458;-73
2023/03/05 10:22:25;;;;;;;5.57;3.20;;;3.60;71.30;;;3.01;63.93;97843.63;5078025;28;20456;-72
2023/03/05 10:25:14;;;;;;;3.80;2.90;;;3.50;71.20;;;2.80;64.08;97823.66;5072970;27;20458;-73
2023/03/05 10:27:49;;;;;;;7.07;3.17;;;3.40;70.80;;;2.94;63.55;97837.28;5086832;27;20508;-69